createdAt,value
2018-08-03T00:01:49.298Z,22.20
2018-08-03T00:07:18.764Z,22.20
2018-08-03T00:12:48.076Z,22.30
2018-08-03T00:18:17.478Z,22.30
2018-08-03T00:23:47.827Z,22.30
2018-08-03T00:29:17.143Z,22.30
2018-08-03T00:34:47.080Z,22.30
2018-08-03T00:40:18.619Z,22.30
2018-08-03T00:45:49.394Z,22.20
2018-08-03T00:51:18.810Z,22.20
2018-08-03T00:56:48.164Z,22.10
2018-08-03T01:02:17.880Z,22.10
2018-08-03T01:07:47.163Z,22.00
2018-08-03T01:13:16.560Z,21.80
2018-08-03T01:18:45.904Z,21.80
2018-08-03T01:24:15.267Z,21.70
2018-08-03T01:29:44.588Z,21.60
2018-08-03T01:35:14.056Z,21.50
2018-08-03T01:40:43.341Z,21.40
2018-08-03T01:46:12.662Z,21.40
2018-08-03T01:51:43.994Z,21.30
2018-08-03T01:57:13.245Z,21.20
2018-08-03T02:02:42.512Z,21.10
2018-08-03T02:08:11.792Z,21.00
2018-08-03T02:13:41.082Z,20.90
2018-08-03T02:19:10.402Z,20.90
2018-08-03T02:24:39.789Z,20.90
2018-08-03T02:30:09.102Z,20.80
2018-08-03T02:35:39.414Z,20.80
2018-08-03T02:41:08.716Z,20.80
2018-08-03T02:46:38.109Z,20.80
2018-08-03T02:52:07.418Z,20.80
2018-08-03T02:57:36.693Z,20.80
2018-08-03T03:03:06.791Z,20.70
2018-08-03T03:08:36.079Z,20.70
2018-08-03T03:14:05.760Z,20.70
2018-08-03T03:19:35.253Z,20.60
2018-08-03T03:25:04.570Z,20.60
2018-08-03T03:30:33.963Z,20.40
2018-08-03T03:36:03.334Z,20.40
2018-08-03T03:41:32.656Z,20.30
2018-08-03T03:47:01.904Z,20.30
2018-08-03T03:52:32.218Z,20.30
2018-08-03T03:58:01.520Z,20.20
2018-08-03T04:09:01.012Z,20.20
2018-08-03T04:14:30.324Z,20.20
2018-08-03T04:19:59.644Z,20.20
2018-08-03T04:25:28.928Z,20.20
2018-08-03T04:30:58.271Z,20.30
2018-08-03T04:36:27.604Z,20.40
2018-08-03T04:41:56.895Z,20.40
2018-08-03T04:47:26.189Z,20.50
2018-08-03T04:52:55.580Z,20.70
2018-08-03T04:58:24.901Z,20.70
2018-08-03T05:03:54.216Z,20.80
2018-08-03T05:09:23.597Z,20.90
2018-08-03T05:14:53.125Z,21.00
2018-08-03T05:20:22.543Z,21.20
2018-08-03T05:25:51.896Z,21.30
2018-08-03T05:31:21.443Z,21.40
2018-08-03T05:36:53.179Z,21.60
2018-08-03T05:42:22.542Z,21.80
2018-08-03T05:47:51.889Z,22.00
2018-08-03T05:53:21.398Z,22.20
2018-08-03T05:58:50.797Z,22.40
2018-08-03T06:04:20.157Z,22.60
2018-08-03T06:09:49.421Z,22.80
2018-08-03T06:15:18.765Z,23.00
2018-08-03T06:20:48.205Z,23.20
2018-08-03T06:26:17.469Z,23.40
2018-08-03T06:31:46.787Z,23.60
2018-08-03T06:37:16.027Z,23.80
2018-08-03T06:42:45.350Z,24.00
2018-08-03T06:48:14.622Z,24.20
2018-08-03T06:53:44.262Z,24.40
2018-08-03T06:59:13.516Z,24.50
2018-08-03T07:04:42.708Z,24.70
2018-08-03T07:10:12.012Z,24.90
2018-08-03T07:15:41.233Z,25.00
2018-08-03T07:21:11.758Z,25.00
2018-08-03T07:32:11.072Z,25.30
2018-08-03T07:37:40.336Z,25.50
2018-08-03T07:43:09.858Z,25.70
2018-08-03T07:48:39.169Z,25.90
2018-08-03T07:54:08.428Z,26.00
2018-08-03T07:59:37.811Z,26.20
2018-08-03T08:05:07.389Z,26.40
2018-08-03T08:10:36.607Z,26.60
2018-08-03T08:16:05.887Z,26.80
2018-08-03T08:21:35.666Z,26.90
2018-08-03T08:27:05.009Z,27.00
2018-08-03T08:32:34.304Z,27.20
2018-08-03T08:38:03.603Z,27.40
2018-08-03T08:43:33.224Z,27.40
2018-08-03T08:49:03.004Z,27.40
2018-08-03T08:54:32.300Z,27.60
2018-08-03T09:00:01.515Z,27.70
2018-08-03T09:05:30.901Z,28.00
2018-08-03T09:11:00.717Z,28.00
2018-08-03T09:16:30.134Z,28.20
2018-08-03T09:21:59.495Z,28.40
2018-08-03T09:27:28.725Z,28.60
2018-08-03T09:32:57.973Z,28.90
2018-08-03T09:38:27.225Z,29.20
2018-08-03T09:43:56.523Z,29.30
2018-08-03T09:49:25.907Z,29.50
2018-08-03T09:54:55.239Z,29.70
2018-08-03T10:00:29.639Z,29.90
2018-08-03T10:05:59.083Z,30.00
2018-08-03T10:11:28.418Z,30.10
2018-08-03T10:16:58.291Z,30.10
2018-08-03T10:22:28.383Z,30.30
2018-08-03T10:27:57.781Z,30.40
2018-08-03T10:33:27.099Z,30.60
2018-08-03T10:38:56.464Z,30.70
2018-08-03T10:44:25.756Z,30.90
2018-08-03T10:49:55.238Z,31.00
2018-08-03T10:55:24.528Z,31.30
2018-08-03T11:00:53.794Z,31.60
2018-08-03T11:06:23.170Z,31.80
2018-08-03T11:11:52.585Z,32.10
2018-08-03T11:17:22.040Z,32.20
2018-08-03T11:22:51.479Z,32.10
2018-08-03T11:28:20.835Z,32.10
2018-08-03T11:33:50.151Z,32.10
2018-08-03T11:39:19.480Z,32.30
2018-08-03T11:44:48.784Z,32.70
2018-08-03T11:50:18.108Z,32.30
2018-08-03T11:55:47.455Z,31.80
2018-08-03T12:01:16.656Z,31.40
2018-08-03T12:12:15.796Z,32.00
2018-08-03T12:17:45.866Z,32.20
2018-08-03T12:23:15.222Z,32.40
2018-08-03T12:28:44.398Z,32.80
2018-08-03T12:34:13.689Z,32.80
2018-08-03T12:39:42.966Z,32.30
2018-08-03T12:45:12.253Z,32.00
2018-08-03T12:50:41.573Z,32.00
2018-08-03T12:56:10.828Z,32.20
2018-08-03T13:01:40.070Z,32.50
2018-08-03T13:07:09.292Z,32.50
2018-08-03T13:12:38.613Z,32.20
2018-08-03T13:18:07.861Z,32.40
2018-08-03T13:23:56.515Z,32.50
2018-08-03T13:29:25.966Z,32.50
2018-08-03T13:34:55.341Z,32.70
2018-08-03T13:40:24.735Z,32.70
2018-08-03T13:45:54.056Z,32.70
2018-08-03T13:51:23.486Z,33.00
2018-08-03T13:56:52.911Z,32.90
2018-08-03T14:02:24.624Z,32.90
2018-08-03T14:07:53.949Z,32.90
2018-08-03T14:13:26.314Z,33.10
2018-08-03T14:18:56.453Z,33.10
2018-08-03T14:24:25.861Z,32.80
2018-08-03T14:29:55.527Z,32.90
2018-08-03T14:35:25.894Z,32.90
2018-08-03T14:40:55.316Z,33.10
2018-08-03T14:46:24.731Z,33.30
2018-08-03T14:51:54.160Z,33.40
2018-08-03T14:57:23.540Z,35.40
2018-08-03T15:02:52.991Z,38.50
2018-08-03T15:08:23.482Z,39.90
2018-08-03T15:13:52.953Z,40.00
2018-08-03T15:19:22.369Z,37.30
2018-08-03T15:24:51.836Z,35.50
2018-08-03T15:30:21.175Z,34.80
2018-08-03T15:35:52.218Z,34.00
2018-08-03T15:41:21.570Z,33.20
2018-08-03T15:46:52.585Z,32.60
2018-08-03T15:52:22.841Z,32.20
2018-08-03T15:57:55.401Z,32.10
2018-08-03T16:03:25.034Z,32.30
2018-08-03T16:08:54.596Z,32.90
2018-08-03T16:14:24.023Z,32.70
2018-08-03T16:19:53.584Z,32.40
2018-08-03T16:25:22.989Z,32.40
2018-08-03T16:36:21.667Z,32.20
2018-08-03T16:41:51.287Z,32.10
2018-08-03T16:47:20.683Z,32.00
2018-08-03T16:52:50.113Z,31.90
2018-08-03T16:58:19.579Z,31.90
2018-08-03T17:03:49.692Z,31.80
2018-08-03T17:09:19.214Z,31.80
2018-08-03T17:14:50.659Z,31.50
2018-08-03T17:20:20.115Z,31.30
2018-08-03T17:25:49.457Z,31.00
2018-08-03T17:31:19.947Z,30.80
2018-08-03T17:36:50.344Z,30.50
2018-08-03T17:42:19.730Z,30.30
2018-08-03T17:47:49.000Z,30.10
2018-08-03T17:53:18.227Z,29.90
2018-08-03T17:58:48.749Z,29.80
2018-08-03T18:04:18.218Z,29.60
2018-08-03T18:09:47.531Z,29.50
2018-08-03T18:15:16.912Z,29.40
2018-08-03T18:26:16.454Z,29.10
2018-08-03T18:31:45.692Z,29.00
2018-08-03T18:37:14.896Z,28.80
2018-08-03T18:42:44.303Z,28.70
2018-08-03T18:48:13.581Z,28.60
2018-08-03T18:53:42.843Z,28.40
2018-08-03T18:59:12.163Z,28.30
2018-08-03T19:04:41.550Z,28.10
2018-08-03T19:10:11.021Z,28.00
2018-08-03T19:15:40.379Z,27.80
2018-08-03T19:21:09.652Z,27.70
2018-08-03T19:26:38.944Z,27.60
2018-08-03T19:32:08.245Z,27.50
2018-08-03T19:37:37.459Z,27.40
2018-08-03T19:43:06.879Z,27.30
2018-08-03T19:48:36.119Z,27.20
2018-08-03T19:54:05.435Z,27.10
2018-08-03T19:59:34.895Z,27.00
2018-08-03T20:05:04.296Z,26.90
2018-08-03T20:10:33.586Z,26.90
2018-08-03T20:16:02.961Z,26.80
2018-08-03T20:21:32.283Z,26.60
2018-08-03T20:27:01.589Z,26.50
2018-08-03T20:32:30.938Z,26.30
2018-08-03T20:38:00.229Z,26.20
2018-08-03T20:43:29.553Z,26.00
2018-08-03T20:48:58.981Z,25.90
2018-08-03T20:54:28.492Z,25.70
2018-08-03T20:59:57.818Z,25.70
2018-08-03T21:10:56.441Z,25.40
2018-08-03T21:16:25.818Z,25.30
2018-08-03T21:21:55.092Z,25.20
2018-08-03T21:27:24.539Z,25.10
2018-08-03T21:32:54.173Z,25.00
2018-08-03T21:38:23.908Z,24.90
2018-08-03T21:43:53.394Z,24.80
2018-08-03T21:49:22.736Z,24.70
2018-08-03T21:54:52.362Z,24.60
2018-08-03T22:00:22.952Z,24.50
2018-08-03T22:05:52.606Z,24.40
2018-08-03T22:11:21.968Z,24.30
2018-08-03T22:16:51.359Z,24.20
2018-08-03T22:22:20.868Z,24.10
2018-08-03T22:27:50.413Z,24.00
2018-08-03T22:33:20.041Z,23.90
2018-08-03T22:38:49.496Z,23.80
2018-08-03T22:44:18.860Z,23.70
2018-08-03T22:49:48.195Z,23.60
2018-08-03T23:00:46.740Z,23.40
2018-08-03T23:06:16.021Z,23.30
2018-08-03T23:11:45.283Z,23.20
2018-08-03T23:17:14.521Z,23.20
2018-08-03T23:22:43.826Z,23.10
2018-08-03T23:28:13.055Z,23.00
2018-08-03T23:33:42.333Z,22.90
2018-08-03T23:39:11.682Z,22.80
2018-08-03T23:44:40.902Z,22.70
2018-08-03T23:50:19.500Z,22.60
2018-08-03T23:55:48.856Z,22.50
